sensor_id;sensor_type;location;lat;lon;timestamp;P1;durP1;ratioP1;P2;durP2;ratioP2
37411;SDS011;23278;52.110;6.050;2023-02-22T00:00:37;18.50;;;13.40;;
37411;SDS011;23278;52.110;6.050;2023-02-22T00:03:13;18.30;;;11.25;;
37411;SDS011;23278;52.110;6.050;2023-02-22T00:05:57;21.88;;;14.30;;
37411;SDS011;23278;52.110;6.050;2023-02-22T00:08:28;20.73;;;12.25;;
37411;SDS011;23278;52.110;6.050;2023-02-22T00:10:59;24.90;;;15.43;;
37411;SDS011;23278;52.110;6.050;2023-02-22T00:13:26;28.85;;;16.00;;
37411;SDS011;23278;52.110;6.050;2023-02-22T00:15:53;22.85;;;15.15;;
37411;SDS011;23278;52.110;6.050;2023-02-22T00:18:24;22.13;;;13.17;;
37411;SDS011;23278;52.110;6.050;2023-02-22T00:20:56;21.55;;;13.30;;
37411;SDS011;23278;52.110;6.050;2023-02-22T00:23:27;25.20;;;15.00;;
37411;SDS011;23278;52.110;6.050;2023-02-22T00:25:54;29.45;;;17.50;;
37411;SDS011;23278;52.110;6.050;2023-02-22T00:28:21;29.15;;;17.27;;
37411;SDS011;23278;52.110;6.050;2023-02-22T00:30:50;28.95;;;17.38;;
37411;SDS011;23278;52.110;6.050;2023-02-22T00:33:19;27.70;;;17.17;;
37411;SDS011;23278;52.110;6.050;2023-02-22T00:35:45;25.38;;;15.30;;
37411;SDS011;23278;52.110;6.050;2023-02-22T00:38:12;41.70;;;23.33;;
37411;SDS011;23278;52.110;6.050;2023-02-22T00:40:39;38.28;;;22.58;;
37411;SDS011;23278;52.110;6.050;2023-02-22T00:43:05;44.22;;;24.95;;
37411;SDS011;23278;52.110;6.050;2023-02-22T00:45:33;40.45;;;24.52;;
37411;SDS011;23278;52.110;6.050;2023-02-22T00:48:00;44.63;;;24.10;;
37411;SDS011;23278;52.110;6.050;2023-02-22T00:50:28;50.00;;;26.75;;
37411;SDS011;23278;52.110;6.050;2023-02-22T00:52:56;48.92;;;25.77;;
37411;SDS011;23278;52.110;6.050;2023-02-22T00:55:24;39.83;;;22.80;;
37411;SDS011;23278;52.110;6.050;2023-02-22T00:57:52;35.03;;;20.77;;
37411;SDS011;23278;52.110;6.050;2023-02-22T01:00:19;50.35;;;25.35;;
37411;SDS011;23278;52.110;6.050;2023-02-22T01:02:51;45.17;;;25.95;;
37411;SDS011;23278;52.110;6.050;2023-02-22T01:05:18;49.30;;;27.35;;
37411;SDS011;23278;52.110;6.050;2023-02-22T01:07:46;68.32;;;33.67;;
37411;SDS011;23278;52.110;6.050;2023-02-22T01:10:15;61.20;;;29.85;;
37411;SDS011;23278;52.110;6.050;2023-02-22T01:12:43;59.88;;;30.65;;
37411;SDS011;23278;52.110;6.050;2023-02-22T01:15:10;54.60;;;29.20;;
37411;SDS011;23278;52.110;6.050;2023-02-22T01:17:37;56.00;;;28.58;;
37411;SDS011;23278;52.110;6.050;2023-02-22T01:20:05;56.65;;;29.80;;
37411;SDS011;23278;52.110;6.050;2023-02-22T01:22:40;61.53;;;31.33;;
37411;SDS011;23278;52.110;6.050;2023-02-22T01:25:08;52.00;;;27.70;;
37411;SDS011;23278;52.110;6.050;2023-02-22T01:27:35;55.38;;;30.98;;
37411;SDS011;23278;52.110;6.050;2023-02-22T01:30:03;57.17;;;32.17;;
37411;SDS011;23278;52.110;6.050;2023-02-22T01:32:37;58.75;;;30.70;;
37411;SDS011;23278;52.110;6.050;2023-02-22T01:35:04;56.35;;;30.35;;
37411;SDS011;23278;52.110;6.050;2023-02-22T01:37:35;60.28;;;30.60;;
37411;SDS011;23278;52.110;6.050;2023-02-22T01:40:03;58.60;;;29.00;;
37411;SDS011;23278;52.110;6.050;2023-02-22T01:51:02;57.10;;;30.50;;
37411;SDS011;23278;52.110;6.050;2023-02-22T01:54:22;56.60;;;29.05;;
37411;SDS011;23278;52.110;6.050;2023-02-22T01:58:57;47.55;;;24.48;;
37411;SDS011;23278;52.110;6.050;2023-02-22T02:01:27;45.95;;;26.58;;
37411;SDS011;23278;52.110;6.050;2023-02-22T02:03:55;46.22;;;23.80;;
37411;SDS011;23278;52.110;6.050;2023-02-22T02:06:24;47.00;;;24.42;;
37411;SDS011;23278;52.110;6.050;2023-02-22T02:11:30;46.70;;;25.70;;
37411;SDS011;23278;52.110;6.050;2023-02-22T02:13:58;46.95;;;24.60;;
37411;SDS011;23278;52.110;6.050;2023-02-22T02:16:30;48.33;;;25.08;;
37411;SDS011;23278;52.110;6.050;2023-02-22T02:19:03;48.00;;;25.05;;
37411;SDS011;23278;52.110;6.050;2023-02-22T02:21:53;47.90;;;23.42;;
37411;SDS011;23278;52.110;6.050;2023-02-22T02:37:54;40.47;;;22.90;;
37411;SDS011;23278;52.110;6.050;2023-02-22T02:41:31;42.03;;;20.45;;
37411;SDS011;23278;52.110;6.050;2023-02-22T02:46:25;39.47;;;20.85;;
37411;SDS011;23278;52.110;6.050;2023-02-22T02:49:04;33.13;;;19.67;;
37411;SDS011;23278;52.110;6.050;2023-02-22T02:51:45;41.50;;;21.38;;
37411;SDS011;23278;52.110;6.050;2023-02-22T02:54:17;35.70;;;20.17;;
37411;SDS011;23278;52.110;6.050;2023-02-22T02:56:45;43.10;;;21.38;;
37411;SDS011;23278;52.110;6.050;2023-02-22T02:59:45;41.92;;;20.63;;
37411;SDS011;23278;52.110;6.050;2023-02-22T03:17:51;37.30;;;20.40;;
37411;SDS011;23278;52.110;6.050;2023-02-22T03:20:33;34.75;;;19.77;;
37411;SDS011;23278;52.110;6.050;2023-02-22T03:23:06;34.55;;;20.00;;
37411;SDS011;23278;52.110;6.050;2023-02-22T03:25:46;37.10;;;19.40;;
37411;SDS011;23278;52.110;6.050;2023-02-22T03:28:17;30.63;;;17.75;;
37411;SDS011;23278;52.110;6.050;2023-02-22T03:30:57;33.00;;;19.48;;
37411;SDS011;23278;52.110;6.050;2023-02-22T03:33:29;29.27;;;17.65;;
37411;SDS011;23278;52.110;6.050;2023-02-22T03:36:23;34.60;;;18.92;;
37411;SDS011;23278;52.110;6.050;2023-02-22T03:38:59;35.80;;;19.52;;
37411;SDS011;23278;52.110;6.050;2023-02-22T03:41:28;34.47;;;18.77;;
37411;SDS011;23278;52.110;6.050;2023-02-22T03:44:01;34.65;;;16.88;;
37411;SDS011;23278;52.110;6.050;2023-02-22T03:46:30;33.22;;;17.23;;
37411;SDS011;23278;52.110;6.050;2023-02-22T03:49:00;33.47;;;19.33;;
37411;SDS011;23278;52.110;6.050;2023-02-22T03:51:35;31.17;;;17.15;;
37411;SDS011;23278;52.110;6.050;2023-02-22T03:54:02;34.03;;;19.90;;
37411;SDS011;23278;52.110;6.050;2023-02-22T03:56:36;33.15;;;19.10;;
37411;SDS011;23278;52.110;6.050;2023-02-22T03:59:11;35.25;;;20.70;;
37411;SDS011;23278;52.110;6.050;2023-02-22T04:01:37;40.65;;;22.10;;
37411;SDS011;23278;52.110;6.050;2023-02-22T04:04:04;33.25;;;20.17;;
37411;SDS011;23278;52.110;6.050;2023-02-22T04:06:31;35.30;;;19.23;;
37411;SDS011;23278;52.110;6.050;2023-02-22T04:08:58;36.75;;;20.75;;
37411;SDS011;23278;52.110;6.050;2023-02-22T04:11:24;36.72;;;20.67;;
37411;SDS011;23278;52.110;6.050;2023-02-22T04:13:50;34.00;;;19.63;;
37411;SDS011;23278;52.110;6.050;2023-02-22T04:16:17;37.67;;;20.65;;
37411;SDS011;23278;52.110;6.050;2023-02-22T04:18:43;32.05;;;18.85;;
37411;SDS011;23278;52.110;6.050;2023-02-22T04:21:10;37.88;;;21.90;;
37411;SDS011;23278;52.110;6.050;2023-02-22T04:23:40;28.80;;;17.42;;
37411;SDS011;23278;52.110;6.050;2023-02-22T04:26:07;30.92;;;17.65;;
37411;SDS011;23278;52.110;6.050;2023-02-22T04:28:33;33.28;;;18.25;;
37411;SDS011;23278;52.110;6.050;2023-02-22T04:31:18;33.13;;;20.23;;
37411;SDS011;23278;52.110;6.050;2023-02-22T04:33:44;28.85;;;16.63;;
37411;SDS011;23278;52.110;6.050;2023-02-22T04:36:13;28.05;;;17.17;;
37411;SDS011;23278;52.110;6.050;2023-02-22T04:38:41;26.20;;;16.50;;
37411;SDS011;23278;52.110;6.050;2023-02-22T04:41:08;32.05;;;19.65;;
37411;SDS011;23278;52.110;6.050;2023-02-22T04:43:35;31.15;;;18.67;;
37411;SDS011;23278;52.110;6.050;2023-02-22T04:46:10;33.30;;;18.25;;
37411;SDS011;23278;52.110;6.050;2023-02-22T04:48:37;35.20;;;18.92;;
37411;SDS011;23278;52.110;6.050;2023-02-22T04:51:02;32.53;;;17.67;;
37411;SDS011;23278;52.110;6.050;2023-02-22T04:53:30;32.05;;;19.80;;
37411;SDS011;23278;52.110;6.050;2023-02-22T04:55:56;32.45;;;18.77;;
37411;SDS011;23278;52.110;6.050;2023-02-22T04:58:22;35.08;;;18.10;;
37411;SDS011;23278;52.110;6.050;2023-02-22T05:00:48;28.05;;;15.88;;
37411;SDS011;23278;52.110;6.050;2023-02-22T05:03:14;30.23;;;18.27;;
37411;SDS011;23278;52.110;6.050;2023-02-22T05:05:40;32.15;;;20.23;;
37411;SDS011;23278;52.110;6.050;2023-02-22T05:08:06;36.28;;;21.38;;
37411;SDS011;23278;52.110;6.050;2023-02-22T05:10:31;33.90;;;18.48;;
37411;SDS011;23278;52.110;6.050;2023-02-22T05:12:58;32.22;;;18.35;;
37411;SDS011;23278;52.110;6.050;2023-02-22T05:15:24;34.85;;;19.52;;
37411;SDS011;23278;52.110;6.050;2023-02-22T05:17:51;37.05;;;21.30;;
37411;SDS011;23278;52.110;6.050;2023-02-22T05:20:27;40.60;;;21.27;;
37411;SDS011;23278;52.110;6.050;2023-02-22T05:22:58;41.95;;;22.95;;
37411;SDS011;23278;52.110;6.050;2023-02-22T05:25:25;37.70;;;21.90;;
37411;SDS011;23278;52.110;6.050;2023-02-22T05:27:53;40.78;;;23.25;;
37411;SDS011;23278;52.110;6.050;2023-02-22T05:30:23;41.20;;;23.50;;
37411;SDS011;23278;52.110;6.050;2023-02-22T05:32:51;44.00;;;23.92;;
37411;SDS011;23278;52.110;6.050;2023-02-22T05:35:20;40.17;;;20.27;;
37411;SDS011;23278;52.110;6.050;2023-02-22T05:37:47;41.95;;;21.42;;
37411;SDS011;23278;52.110;6.050;2023-02-22T05:40:17;52.78;;;26.48;;
37411;SDS011;23278;52.110;6.050;2023-02-22T05:42:44;49.40;;;26.10;;
37411;SDS011;23278;52.110;6.050;2023-02-22T05:45:11;47.40;;;26.10;;
37411;SDS011;23278;52.110;6.050;2023-02-22T05:47:38;45.33;;;23.65;;
37411;SDS011;23278;52.110;6.050;2023-02-22T05:50:04;51.72;;;28.15;;
37411;SDS011;23278;52.110;6.050;2023-02-22T05:52:30;48.42;;;25.42;;
37411;SDS011;23278;52.110;6.050;2023-02-22T05:54:56;42.83;;;22.92;;
37411;SDS011;23278;52.110;6.050;2023-02-22T05:57:23;53.90;;;27.48;;
37411;SDS011;23278;52.110;6.050;2023-02-22T05:59:49;59.40;;;29.52;;
37411;SDS011;23278;52.110;6.050;2023-02-22T06:02:15;57.92;;;28.83;;
37411;SDS011;23278;52.110;6.050;2023-02-22T06:04:44;64.47;;;30.60;;
37411;SDS011;23278;52.110;6.050;2023-02-22T06:07:11;56.97;;;28.08;;
37411;SDS011;23278;52.110;6.050;2023-02-22T06:09:38;67.85;;;30.25;;
37411;SDS011;23278;52.110;6.050;2023-02-22T06:12:04;57.42;;;29.20;;
37411;SDS011;23278;52.110;6.050;2023-02-22T06:14:30;59.95;;;28.98;;
37411;SDS011;23278;52.110;6.050;2023-02-22T06:16:56;50.75;;;24.48;;
37411;SDS011;23278;52.110;6.050;2023-02-22T06:19:23;62.13;;;30.17;;
37411;SDS011;23278;52.110;6.050;2023-02-22T06:21:49;71.63;;;32.80;;
37411;SDS011;23278;52.110;6.050;2023-02-22T06:24:17;64.85;;;30.73;;
37411;SDS011;23278;52.110;6.050;2023-02-22T06:26:43;64.85;;;30.38;;
37411;SDS011;23278;52.110;6.050;2023-02-22T06:29:09;70.13;;;32.75;;
37411;SDS011;23278;52.110;6.050;2023-02-22T06:31:35;67.70;;;30.95;;
37411;SDS011;23278;52.110;6.050;2023-02-22T06:34:01;76.20;;;33.72;;
37411;SDS011;23278;52.110;6.050;2023-02-22T06:36:27;88.13;;;35.85;;
37411;SDS011;23278;52.110;6.050;2023-02-22T06:38:56;86.68;;;36.63;;
37411;SDS011;23278;52.110;6.050;2023-02-22T06:41:22;89.70;;;36.22;;
37411;SDS011;23278;52.110;6.050;2023-02-22T06:43:48;90.93;;;40.35;;
37411;SDS011;23278;52.110;6.050;2023-02-22T06:46:14;86.00;;;36.35;;
37411;SDS011;23278;52.110;6.050;2023-02-22T06:48:40;89.00;;;38.88;;
37411;SDS011;23278;52.110;6.050;2023-02-22T06:51:07;82.72;;;34.78;;
37411;SDS011;23278;52.110;6.050;2023-02-22T06:53:34;82.22;;;34.58;;
37411;SDS011;23278;52.110;6.050;2023-02-22T06:56:01;85.88;;;35.05;;
37411;SDS011;23278;52.110;6.050;2023-02-22T06:58:27;76.75;;;33.25;;
37411;SDS011;23278;52.110;6.050;2023-02-22T07:00:53;84.93;;;36.35;;
37411;SDS011;23278;52.110;6.050;2023-02-22T07:03:19;91.10;;;35.75;;
37411;SDS011;23278;52.110;6.050;2023-02-22T07:05:45;86.38;;;36.55;;
37411;SDS011;23278;52.110;6.050;2023-02-22T07:08:12;91.57;;;37.58;;
37411;SDS011;23278;52.110;6.050;2023-02-22T07:10:38;77.80;;;32.15;;
37411;SDS011;23278;52.110;6.050;2023-02-22T07:13:05;83.68;;;32.53;;
37411;SDS011;23278;52.110;6.050;2023-02-22T07:15:33;74.47;;;32.90;;
37411;SDS011;23278;52.110;6.050;2023-02-22T07:17:59;86.05;;;33.05;;
37411;SDS011;23278;52.110;6.050;2023-02-22T07:20:26;89.63;;;36.40;;
37411;SDS011;23278;52.110;6.050;2023-02-22T07:22:53;73.32;;;31.83;;
37411;SDS011;23278;52.110;6.050;2023-02-22T07:25:20;64.47;;;27.95;;
37411;SDS011;23278;52.110;6.050;2023-02-22T07:27:47;56.80;;;26.23;;
37411;SDS011;23278;52.110;6.050;2023-02-22T07:32:49;62.83;;;26.23;;
37411;SDS011;23278;52.110;6.050;2023-02-22T07:35:17;76.78;;;30.98;;
37411;SDS011;23278;52.110;6.050;2023-02-22T07:37:48;76.15;;;30.73;;
37411;SDS011;23278;52.110;6.050;2023-02-22T07:40:14;67.75;;;29.40;;
37411;SDS011;23278;52.110;6.050;2023-02-22T07:43:01;59.63;;;28.98;;
37411;SDS011;23278;52.110;6.050;2023-02-22T07:45:28;58.58;;;26.75;;
37411;SDS011;23278;52.110;6.050;2023-02-22T07:47:56;61.85;;;25.60;;
37411;SDS011;23278;52.110;6.050;2023-02-22T07:50:22;60.03;;;27.70;;
37411;SDS011;23278;52.110;6.050;2023-02-22T07:52:51;50.28;;;24.00;;
37411;SDS011;23278;52.110;6.050;2023-02-22T07:55:18;54.90;;;24.30;;
37411;SDS011;23278;52.110;6.050;2023-02-22T07:57:47;53.45;;;24.80;;
37411;SDS011;23278;52.110;6.050;2023-02-22T08:00:16;72.60;;;27.17;;
37411;SDS011;23278;52.110;6.050;2023-02-22T08:02:47;62.20;;;25.98;;
37411;SDS011;23278;52.110;6.050;2023-02-22T08:05:13;54.53;;;25.08;;
37411;SDS011;23278;52.110;6.050;2023-02-22T08:07:39;51.13;;;23.05;;
37411;SDS011;23278;52.110;6.050;2023-02-22T08:10:07;47.22;;;23.00;;
37411;SDS011;23278;52.110;6.050;2023-02-22T08:12:35;54.08;;;27.17;;
37411;SDS011;23278;52.110;6.050;2023-02-22T08:15:03;54.38;;;25.63;;
37411;SDS011;23278;52.110;6.050;2023-02-22T08:17:31;53.75;;;25.52;;
37411;SDS011;23278;52.110;6.050;2023-02-22T08:19:57;37.60;;;19.77;;
37411;SDS011;23278;52.110;6.050;2023-02-22T08:22:23;44.58;;;20.13;;
37411;SDS011;23278;52.110;6.050;2023-02-22T08:24:49;52.00;;;23.17;;
37411;SDS011;23278;52.110;6.050;2023-02-22T08:27:25;47.97;;;25.08;;
37411;SDS011;23278;52.110;6.050;2023-02-22T08:29:52;40.13;;;20.27;;
37411;SDS011;23278;52.110;6.050;2023-02-22T08:32:19;46.05;;;21.23;;
37411;SDS011;23278;52.110;6.050;2023-02-22T08:34:46;51.28;;;24.08;;
37411;SDS011;23278;52.110;6.050;2023-02-22T08:37:12;56.20;;;26.05;;
37411;SDS011;23278;52.110;6.050;2023-02-22T08:39:39;44.05;;;22.13;;
37411;SDS011;23278;52.110;6.050;2023-02-22T08:42:05;43.65;;;21.90;;
37411;SDS011;23278;52.110;6.050;2023-02-22T08:44:33;46.78;;;24.80;;
37411;SDS011;23278;52.110;6.050;2023-02-22T08:46:59;50.97;;;24.95;;
37411;SDS011;23278;52.110;6.050;2023-02-22T08:49:25;45.65;;;21.77;;
37411;SDS011;23278;52.110;6.050;2023-02-22T08:51:51;42.47;;;20.38;;
37411;SDS011;23278;52.110;6.050;2023-02-22T08:54:17;53.47;;;23.48;;
37411;SDS011;23278;52.110;6.050;2023-02-22T08:56:43;47.17;;;21.45;;
37411;SDS011;23278;52.110;6.050;2023-02-22T08:59:09;44.90;;;21.77;;
37411;SDS011;23278;52.110;6.050;2023-02-22T09:01:35;45.40;;;22.63;;
37411;SDS011;23278;52.110;6.050;2023-02-22T09:04:01;49.53;;;23.25;;
37411;SDS011;23278;52.110;6.050;2023-02-22T09:06:27;45.22;;;22.27;;
37411;SDS011;23278;52.110;6.050;2023-02-22T09:08:54;43.95;;;21.65;;
37411;SDS011;23278;52.110;6.050;2023-02-22T09:11:20;46.40;;;21.33;;
37411;SDS011;23278;52.110;6.050;2023-02-22T09:13:46;45.00;;;21.70;;
37411;SDS011;23278;52.110;6.050;2023-02-22T09:16:12;54.92;;;25.17;;
37411;SDS011;23278;52.110;6.050;2023-02-22T09:18:38;44.17;;;21.40;;
37411;SDS011;23278;52.110;6.050;2023-02-22T09:21:04;39.13;;;21.38;;
37411;SDS011;23278;52.110;6.050;2023-02-22T09:23:30;41.63;;;20.85;;
37411;SDS011;23278;52.110;6.050;2023-02-22T09:25:56;46.05;;;23.25;;
37411;SDS011;23278;52.110;6.050;2023-02-22T09:28:24;41.10;;;20.40;;
37411;SDS011;23278;52.110;6.050;2023-02-22T09:30:53;43.10;;;19.08;;
37411;SDS011;23278;52.110;6.050;2023-02-22T09:33:19;38.47;;;20.23;;
37411;SDS011;23278;52.110;6.050;2023-02-22T09:35:47;39.53;;;19.75;;
37411;SDS011;23278;52.110;6.050;2023-02-22T09:38:15;36.85;;;18.85;;
37411;SDS011;23278;52.110;6.050;2023-02-22T09:40:44;30.85;;;16.65;;
37411;SDS011;23278;52.110;6.050;2023-02-22T09:48:37;40.00;;;19.40;;
37411;SDS011;23278;52.110;6.050;2023-02-22T09:51:22;42.65;;;19.55;;
37411;SDS011;23278;52.110;6.050;2023-02-22T09:53:54;33.60;;;18.05;;
37411;SDS011;23278;52.110;6.050;2023-02-22T09:56:24;34.83;;;18.65;;
37411;SDS011;23278;52.110;6.050;2023-02-22T09:58:54;39.35;;;19.08;;
37411;SDS011;23278;52.110;6.050;2023-02-22T10:06:46;35.47;;;19.33;;
37411;SDS011;23278;52.110;6.050;2023-02-22T10:09:37;41.05;;;20.20;;
37411;SDS011;23278;52.110;6.050;2023-02-22T10:12:09;36.70;;;19.23;;
37411;SDS011;23278;52.110;6.050;2023-02-22T10:22:21;35.13;;;20.02;;
37411;SDS011;23278;52.110;6.050;2023-02-22T10:25:17;38.10;;;19.95;;
37411;SDS011;23278;52.110;6.050;2023-02-22T10:30:42;33.80;;;18.63;;
37411;SDS011;23278;52.110;6.050;2023-02-22T10:33:23;30.87;;;17.13;;
37411;SDS011;23278;52.110;6.050;2023-02-22T10:35:54;35.72;;;18.30;;
37411;SDS011;23278;52.110;6.050;2023-02-22T10:38:22;36.30;;;18.70;;
37411;SDS011;23278;52.110;6.050;2023-02-22T10:43:40;37.78;;;20.63;;
37411;SDS011;23278;52.110;6.050;2023-02-22T10:46:10;44.20;;;21.33;;
37411;SDS011;23278;52.110;6.050;2023-02-22T10:48:39;43.30;;;21.90;;
37411;SDS011;23278;52.110;6.050;2023-02-22T10:51:09;41.33;;;22.50;;
37411;SDS011;23278;52.110;6.050;2023-02-22T10:53:36;36.45;;;20.27;;
37411;SDS011;23278;52.110;6.050;2023-02-22T10:59:02;30.40;;;16.67;;
37411;SDS011;23278;52.110;6.050;2023-02-22T11:06:40;43.33;;;21.83;;
37411;SDS011;23278;52.110;6.050;2023-02-22T11:09:13;37.45;;;20.38;;
37411;SDS011;23278;52.110;6.050;2023-02-22T11:11:46;38.35;;;22.20;;
37411;SDS011;23278;52.110;6.050;2023-02-22T11:14:27;43.20;;;24.05;;
37411;SDS011;23278;52.110;6.050;2023-02-22T11:16:54;44.65;;;24.00;;
37411;SDS011;23278;52.110;6.050;2023-02-22T11:22:18;43.85;;;24.45;;
37411;SDS011;23278;52.110;6.050;2023-02-22T11:27:23;38.65;;;23.58;;
37411;SDS011;23278;52.110;6.050;2023-02-22T11:29:58;46.63;;;24.83;;
37411;SDS011;23278;52.110;6.050;2023-02-22T11:32:34;44.78;;;24.63;;
37411;SDS011;23278;52.110;6.050;2023-02-22T11:35:17;41.25;;;22.33;;
37411;SDS011;23278;52.110;6.050;2023-02-22T11:37:52;39.10;;;22.33;;
37411;SDS011;23278;52.110;6.050;2023-02-22T11:40:33;35.10;;;20.00;;
37411;SDS011;23278;52.110;6.050;2023-02-22T11:43:11;36.67;;;21.50;;
37411;SDS011;23278;52.110;6.050;2023-02-22T11:46:00;33.65;;;21.25;;
37411;SDS011;23278;52.110;6.050;2023-02-22T11:48:30;34.17;;;20.48;;
37411;SDS011;23278;52.110;6.050;2023-02-22T11:56:28;30.52;;;18.30;;
37411;SDS011;23278;52.110;6.050;2023-02-22T12:02:04;27.17;;;16.27;;
37411;SDS011;23278;52.110;6.050;2023-02-22T12:05:06;24.10;;;16.17;;
37411;SDS011;23278;52.110;6.050;2023-02-22T12:18:29;23.05;;;15.75;;
37411;SDS011;23278;52.110;6.050;2023-02-22T12:21:02;23.70;;;16.15;;
37411;SDS011;23278;52.110;6.050;2023-02-22T12:23:40;23.10;;;14.85;;
37411;SDS011;23278;52.110;6.050;2023-02-22T12:26:34;26.15;;;16.95;;
37411;SDS011;23278;52.110;6.050;2023-02-22T12:31:59;20.58;;;14.50;;
37411;SDS011;23278;52.110;6.050;2023-02-22T12:34:51;23.02;;;13.88;;
37411;SDS011;23278;52.110;6.050;2023-02-22T12:37:27;18.10;;;13.65;;
37411;SDS011;23278;52.110;6.050;2023-02-22T12:40:15;18.60;;;12.45;;
37411;SDS011;23278;52.110;6.050;2023-02-22T12:48:30;18.33;;;12.07;;
37411;SDS011;23278;52.110;6.050;2023-02-22T12:51:17;16.05;;;12.38;;
37411;SDS011;23278;52.110;6.050;2023-02-22T12:54:36;18.85;;;14.35;;
37411;SDS011;23278;52.110;6.050;2023-02-22T12:57:02;20.02;;;13.68;;
37411;SDS011;23278;52.110;6.050;2023-02-22T12:59:36;18.50;;;12.85;;
37411;SDS011;23278;52.110;6.050;2023-02-22T13:02:13;16.95;;;13.25;;
37411;SDS011;23278;52.110;6.050;2023-02-22T13:05:00;18.02;;;13.02;;
37411;SDS011;23278;52.110;6.050;2023-02-22T13:07:37;17.10;;;13.15;;
37411;SDS011;23278;52.110;6.050;2023-02-22T13:16:02;14.30;;;11.35;;
37411;SDS011;23278;52.110;6.050;2023-02-22T13:18:49;16.02;;;11.05;;
37411;SDS011;23278;52.110;6.050;2023-02-22T13:21:28;18.20;;;13.43;;
37411;SDS011;23278;52.110;6.050;2023-02-22T13:24:07;17.05;;;11.77;;
37411;SDS011;23278;52.110;6.050;2023-02-22T13:26:57;15.60;;;12.23;;
37411;SDS011;23278;52.110;6.050;2023-02-22T13:50:58;17.05;;;13.23;;
37411;SDS011;23278;52.110;6.050;2023-02-22T13:53:38;19.05;;;12.95;;
37411;SDS011;23278;52.110;6.050;2023-02-22T13:56:15;18.77;;;13.30;;
37411;SDS011;23278;52.110;6.050;2023-02-22T13:59:02;15.35;;;11.50;;
37411;SDS011;23278;52.110;6.050;2023-02-22T14:01:36;14.27;;;11.15;;
37411;SDS011;23278;52.110;6.050;2023-02-22T14:04:20;17.92;;;13.32;;
37411;SDS011;23278;52.110;6.050;2023-02-22T14:06:54;21.25;;;14.35;;
37411;SDS011;23278;52.110;6.050;2023-02-22T14:12:31;20.50;;;14.65;;
37411;SDS011;23278;52.110;6.050;2023-02-22T14:17:42;18.85;;;13.75;;
37411;SDS011;23278;52.110;6.050;2023-02-22T14:22:41;18.27;;;12.70;;
37411;SDS011;23278;52.110;6.050;2023-02-22T14:25:30;15.57;;;11.07;;
37411;SDS011;23278;52.110;6.050;2023-02-22T14:27:53;14.93;;;10.95;;
37411;SDS011;23278;52.110;6.050;2023-02-22T14:30:22;12.98;;;10.68;;
37411;SDS011;23278;52.110;6.050;2023-02-22T14:32:50;18.98;;;13.57;;
37411;SDS011;23278;52.110;6.050;2023-02-22T14:35:16;17.25;;;12.93;;
37411;SDS011;23278;52.110;6.050;2023-02-22T14:37:50;18.25;;;13.18;;
37411;SDS011;23278;52.110;6.050;2023-02-22T14:40:36;19.60;;;14.70;;
37411;SDS011;23278;52.110;6.050;2023-02-22T14:43:13;18.45;;;12.57;;
37411;SDS011;23278;52.110;6.050;2023-02-22T14:45:54;15.00;;;11.60;;
37411;SDS011;23278;52.110;6.050;2023-02-22T14:50:53;16.13;;;11.73;;
37411;SDS011;23278;52.110;6.050;2023-02-22T14:53:39;13.35;;;10.32;;
37411;SDS011;23278;52.110;6.050;2023-02-22T14:56:13;17.50;;;12.90;;
37411;SDS011;23278;52.110;6.050;2023-02-22T14:58:50;12.93;;;10.70;;
37411;SDS011;23278;52.110;6.050;2023-02-22T15:01:23;17.48;;;12.52;;
37411;SDS011;23278;52.110;6.050;2023-02-22T15:03:54;18.98;;;13.27;;
37411;SDS011;23278;52.110;6.050;2023-02-22T15:06:27;16.67;;;12.95;;
37411;SDS011;23278;52.110;6.050;2023-02-22T15:09:11;17.13;;;13.48;;
37411;SDS011;23278;52.110;6.050;2023-02-22T15:12:11;18.83;;;13.15;;
37411;SDS011;23278;52.110;6.050;2023-02-22T15:14:37;18.27;;;12.70;;
37411;SDS011;23278;52.110;6.050;2023-02-22T15:17:16;17.20;;;11.93;;
37411;SDS011;23278;52.110;6.050;2023-02-22T15:19:45;24.35;;;14.45;;
37411;SDS011;23278;52.110;6.050;2023-02-22T15:22:20;18.02;;;12.10;;
37411;SDS011;23278;52.110;6.050;2023-02-22T15:24:57;17.00;;;11.70;;
37411;SDS011;23278;52.110;6.050;2023-02-22T15:27:32;18.02;;;12.43;;
37411;SDS011;23278;52.110;6.050;2023-02-22T15:30:06;16.85;;;12.25;;
37411;SDS011;23278;52.110;6.050;2023-02-22T15:32:53;14.15;;;10.55;;
37411;SDS011;23278;52.110;6.050;2023-02-22T15:37:59;15.02;;;9.60;;
37411;SDS011;23278;52.110;6.050;2023-02-22T15:40:28;13.15;;;9.93;;
37411;SDS011;23278;52.110;6.050;2023-02-22T15:43:01;12.35;;;10.00;;
37411;SDS011;23278;52.110;6.050;2023-02-22T15:45:33;14.45;;;10.25;;
37411;SDS011;23278;52.110;6.050;2023-02-22T15:47:59;18.45;;;13.35;;
37411;SDS011;23278;52.110;6.050;2023-02-22T15:53:05;15.13;;;10.45;;
37411;SDS011;23278;52.110;6.050;2023-02-22T15:55:57;14.70;;;11.43;;
37411;SDS011;23278;52.110;6.050;2023-02-22T15:58:27;17.63;;;11.88;;
37411;SDS011;23278;52.110;6.050;2023-02-22T16:01:01;16.50;;;11.15;;
37411;SDS011;23278;52.110;6.050;2023-02-22T16:03:37;17.75;;;12.32;;
37411;SDS011;23278;52.110;6.050;2023-02-22T16:08:55;19.40;;;13.90;;
37411;SDS011;23278;52.110;6.050;2023-02-22T16:11:25;17.70;;;13.40;;
37411;SDS011;23278;52.110;6.050;2023-02-22T16:14:02;18.10;;;13.30;;
37411;SDS011;23278;52.110;6.050;2023-02-22T16:16:34;19.83;;;13.27;;
37411;SDS011;23278;52.110;6.050;2023-02-22T16:19:18;15.13;;;12.45;;
37411;SDS011;23278;52.110;6.050;2023-02-22T16:21:59;16.40;;;11.80;;
37411;SDS011;23278;52.110;6.050;2023-02-22T16:24:28;14.63;;;10.27;;
37411;SDS011;23278;52.110;6.050;2023-02-22T16:27:04;18.63;;;12.48;;
37411;SDS011;23278;52.110;6.050;2023-02-22T16:29:30;20.38;;;14.02;;
37411;SDS011;23278;52.110;6.050;2023-02-22T16:31:56;20.63;;;15.20;;
37411;SDS011;23278;52.110;6.050;2023-02-22T16:34:22;21.30;;;15.48;;
37411;SDS011;23278;52.110;6.050;2023-02-22T16:36:48;23.42;;;13.07;;
37411;SDS011;23278;52.110;6.050;2023-02-22T16:41:44;21.63;;;14.25;;
37411;SDS011;23278;52.110;6.050;2023-02-22T16:44:11;17.83;;;12.85;;
37411;SDS011;23278;52.110;6.050;2023-02-22T16:46:37;17.42;;;13.88;;
37411;SDS011;23278;52.110;6.050;2023-02-22T16:49:06;19.17;;;12.85;;
37411;SDS011;23278;52.110;6.050;2023-02-22T16:51:42;20.48;;;15.15;;
37411;SDS011;23278;52.110;6.050;2023-02-22T16:54:12;18.48;;;14.07;;
37411;SDS011;23278;52.110;6.050;2023-02-22T16:56:43;21.58;;;13.20;;
37411;SDS011;23278;52.110;6.050;2023-02-22T16:59:10;15.52;;;11.90;;
37411;SDS011;23278;52.110;6.050;2023-02-22T17:01:41;20.65;;;13.57;;
37411;SDS011;23278;52.110;6.050;2023-02-22T17:04:15;15.13;;;11.23;;
37411;SDS011;23278;52.110;6.050;2023-02-22T17:06:44;16.55;;;12.57;;
37411;SDS011;23278;52.110;6.050;2023-02-22T17:09:10;15.07;;;10.88;;
37411;SDS011;23278;52.110;6.050;2023-02-22T17:11:36;14.57;;;10.80;;
37411;SDS011;23278;52.110;6.050;2023-02-22T17:14:03;13.93;;;11.13;;
37411;SDS011;23278;52.110;6.050;2023-02-22T17:16:29;15.77;;;12.02;;
37411;SDS011;23278;52.110;6.050;2023-02-22T17:18:56;18.90;;;13.05;;
37411;SDS011;23278;52.110;6.050;2023-02-22T17:21:22;15.02;;;12.85;;
37411;SDS011;23278;52.110;6.050;2023-02-22T17:23:47;19.88;;;14.35;;
37411;SDS011;23278;52.110;6.050;2023-02-22T17:26:14;19.95;;;14.35;;